Terminal Aerodrome Forecast
Issued by NWS

Home | Current Version | Previous Version | Text Only | Print | Product List | Glossary On
Versions: 1 2 3 4 5 6 7 8 9 10 11 12 13 14 15 16 17 18 19 20 21 22 23 24 25 26 27 28 29 30 31 32 33 34 35 36 37
000
FTUS46 KOTX 191138
TAFCOE
TAF
KCOE 191138Z 1912/2012 02007KT P6SM BCFG SCT006 SCT015 SCT150
     FM191600 23008KT P6SM BKN020 BKN150
     FM191900 25011KT P6SM BKN030 BKN120
     FM192100 23010G17KT P6SM SCT040 BKN150
     FM200500 28005KT P6SM SCT250=

USA.gov is the U.S. government's official web portal to all federal, state and local government web resources and services.